Inhambupe, Brazil
Current Conditions -  °F | °C
As of 7:00 AM on Friday 21 Nov 2014 (Local Time) from SBSV Reporting Station
Broken Clouds Broken Clouds  
Wind Chill: 75°   Ceiling: 7000
Heat Index: 75°   Visibility: 6mi
Dew Point: 73°   Wind: 3mph
Humidity: 94%   Direction: 60°ENE
Pressure: 29.94"   Gusts: NA
Location:  11.78°S, 38.35°W
Report Text: SBSV 211000Z 06003KT 9999 SCT015 FEW020TCU BKN070 24/23 Q1014
Loading
Personal Weather Stations






























Interactive Weather Map New forecast layout! Learn more

10-Day Weather Forecast

Advertisements
Track Severe Weather on mobile